Aeroporto :
LOGIN :

Iscrizione | Disclaimer

   EN    FR    IT 

 










Sommario :    VFR   VFR Marginale   IFR   IFR Intensivo   IFR Molto Intensivo
Visibilità : 
Base nubi : 
>= 8 km
>= 3000ft
5 / 8 km
1000 / 3000 ft
1500m / 5 km
500 / 1000 ft
800 / 1500m
200 / 500 ft
< 800m
< 200 ft
Simboli :   Temporali  Nebbia  Neve Forte  Precipitazioni Forti  Vento > 20 kt
SIGMETs :   Varie  Temporali  Ghiacco  Turbolenza  Onda orograficha  Ceneri Vulcaniche







- Altitudine del aeroporto : 200 ft


EBBL - Klein Brogel AB

ULTIMO METAR :
  • 270825Z 04007KT 9999 SKC 19/12 Q1029 BLU BLU

METARs OBSOLETI :
  • 270755Z 06008KT 9999 FEW017 18/11 Q1029 BLU BLU
  • 270725Z 02008KT 9999 FEW017 18/12 Q1029 BLU BLU
  • 270722Z 03009KT 9999 FEW017 18/12 Q1029 BLU BLU
  • 270655Z 04010KT 9999 FEW017 18/12 Q1029 BLU BLU TEMPO WHT
  • 270649Z 05008KT 9999 FEW017 18/12 Q1029 BLU BLU TEMPO WHT
  • 270625Z 06008KT 9999 FEW014 17/12 Q1029 BLU BLU TEMPO GRN
  • 270624Z 05008KT 9999 FEW014 17/12 Q1029 BLU BLU TEMPO GRN
  • 270555Z 06008KT 9999 SCT014 16/12 Q1029 GRN GRN BECMG BLU

TAF TAF EBBL
Valido dal 27 a 07 ore il 27 a 16 ore UTC


270541Z 2707/2716 04007KT 9999 BKN010
BECMG 2708/2710 FEW010
BECMG 2710/2712 SKC
Nessun NOTAM noto per questo aeroporto.



MetMap, La meteo Aeronautica in un colpo d'occhio ! - Copyright ORBIFLY Dicembre 2007 - Disclaimer

ORBIFLY MET'MAP TEAM :

Programmazione e sviluppo : Alexandra Zaïnal
Concezione e sviluppo : Baudouin d'Aumeries
Co-Programmazione e sviluppo : Marc-Olivier Méhu
Supporto tecnico e logistico : Manuel Goepfert
Aiuto per la traduzione : Arnaldo La Scala

Contatto : metmap@orbifly.com




FONTI E CREDITI :

   NOAA